sensor_id;sensor_type;location;lat;lon;timestamp;pressure;altitude;pressure_sealevel;temperature;humidity
44144;BME280;43510;51.920;4.492;2022-11-11T00:01:35;67322.34;;;13.23;100.00
44144;BME280;43510;51.920;4.492;2022-11-11T00:04:01;67320.13;;;13.21;100.00
44144;BME280;43510;51.920;4.492;2022-11-11T00:06:27;67322.34;;;13.23;100.00
44144;BME280;43510;51.920;4.492;2022-11-11T00:08:53;67324.03;;;13.25;100.00
44144;BME280;43510;51.920;4.492;2022-11-11T00:11:18;67320.13;;;13.21;100.00
44144;BME280;43510;51.920;4.492;2022-11-11T00:13:44;67320.69;;;13.22;100.00
44144;BME280;43510;51.920;4.492;2022-11-11T00:16:11;67307.09;;;13.07;100.00
44144;BME280;43510;51.920;4.492;2022-11-11T00:18:40;67321.66;;;13.20;100.00
44144;BME280;43510;51.920;4.492;2022-11-11T00:21:25;67318.84;;;13.18;100.00
44144;BME280;43510;51.920;4.492;2022-11-11T00:24:07;67315.50;;;13.15;100.00
44144;BME280;43510;51.920;4.492;2022-11-11T00:27:02;67318.69;;;13.15;100.00
44144;BME280;43510;51.920;4.492;2022-11-11T00:29:29;67316.06;;;13.15;100.00
44144;BME280;43510;51.920;4.492;2022-11-11T00:31:55;67316.78;;;13.18;100.00
44144;BME280;43510;51.920;4.492;2022-11-11T00:34:39;67318.69;;;13.15;100.00
44144;BME280;43510;51.920;4.492;2022-11-11T00:37:04;67321.25;;;13.22;100.00
44144;BME280;43510;51.920;4.492;2022-11-11T00:39:29;67314.69;;;13.19;100.00
44144;BME280;43510;51.920;4.492;2022-11-11T00:41:55;67316.78;;;13.18;100.00
44144;BME280;43510;51.920;4.492;2022-11-11T00:44:20;67313.81;;;13.13;100.00
44144;BME280;43510;51.920;4.492;2022-11-11T00:46:47;67311.75;;;13.14;100.00
44144;BME280;43510;51.920;4.492;2022-11-11T00:49:30;67315.09;;;13.17;100.00
44144;BME280;43510;51.920;4.492;2022-11-11T00:52:14;67311.91;;;13.16;100.00
44144;BME280;43510;51.920;4.492;2022-11-11T00:54:41;67311.19;;;13.13;100.00
44144;BME280;43510;51.920;4.492;2022-11-11T00:57:06;67307.81;;;13.10;100.00
44144;BME280;43510;51.920;4.492;2022-11-11T00:59:34;67309.72;;;13.07;100.00
44144;BME280;43510;51.920;4.492;2022-11-11T01:01:59;67297.91;;;13.03;100.00
44144;BME280;43510;51.920;4.492;2022-11-11T01:04:24;67303.34;;;13.06;100.00
44144;BME280;43510;51.920;4.492;2022-11-11T01:06:50;67297.75;;;13.01;100.00
44144;BME280;43510;51.920;4.492;2022-11-11T01:09:15;67292.88;;;12.99;100.00
44144;BME280;43510;51.920;4.492;2022-11-11T01:11:41;67289.91;;;12.94;100.00
44144;BME280;43510;51.920;4.492;2022-11-11T01:14:06;67289.91;;;12.94;100.00
44144;BME280;43510;51.920;4.492;2022-11-11T01:16:31;67292.16;;;12.96;100.00
44144;BME280;43510;51.920;4.492;2022-11-11T01:18:57;67286.00;;;12.90;100.00
44144;BME280;43510;51.920;4.492;2022-11-11T01:21:23;67289.91;;;12.94;100.00
44144;BME280;43510;51.920;4.492;2022-11-11T01:23:50;67289.34;;;12.93;100.00
44144;BME280;43510;51.920;4.492;2022-11-11T01:26:19;67284.34;;;12.89;100.00
44144;BME280;43510;51.920;4.492;2022-11-11T01:28:48;67274.59;;;12.85;100.00
44144;BME280;43510;51.920;4.492;2022-11-11T01:31:16;67281.56;;;12.86;100.00
44144;BME280;43510;51.920;4.492;2022-11-11T01:33:42;67293.28;;;12.97;100.00
44144;BME280;43510;51.920;4.492;2022-11-11T01:36:15;67291.03;;;12.95;100.00
44144;BME280;43510;51.920;4.492;2022-11-11T01:38:43;67297.97;;;12.96;100.00
44144;BME280;43510;51.920;4.492;2022-11-11T01:41:14;67287.13;;;12.91;100.00
44144;BME280;43510;51.920;4.492;2022-11-11T01:46:30;67285.63;;;12.92;100.00
44144;BME280;43510;51.920;4.492;2022-11-11T01:51:47;67292.00;;;12.93;100.00
44144;BME280;43510;51.920;4.492;2022-11-11T01:54:32;67298.53;;;12.97;100.00
44144;BME280;43510;51.920;4.492;2022-11-11T01:57:10;67287.13;;;12.91;100.00
44144;BME280;43510;51.920;4.492;2022-11-11T01:59:38;67281.00;;;12.86;100.00
44144;BME280;43510;51.920;4.492;2022-11-11T02:02:14;67300.22;;;12.98;100.00
44144;BME280;43510;51.920;4.492;2022-11-11T02:04:41;67286.00;;;12.90;100.00
44144;BME280;43510;51.920;4.492;2022-11-11T02:07:28;67286.56;;;12.91;100.00
44144;BME280;43510;51.920;4.492;2022-11-11T02:09:58;67287.91;;;12.87;100.00
44144;BME280;43510;51.920;4.492;2022-11-11T02:12:24;67289.22;;;12.91;100.00
44144;BME280;43510;51.920;4.492;2022-11-11T02:15:08;67286.56;;;12.91;100.00
44144;BME280;43510;51.920;4.492;2022-11-11T02:17:33;67281.19;;;12.81;100.00
44144;BME280;43510;51.920;4.492;2022-11-11T02:20:01;67285.44;;;12.90;100.00
44144;BME280;43510;51.920;4.492;2022-11-11T02:25:06;67298.13;;;12.99;100.00
44144;BME280;43510;51.920;4.492;2022-11-11T02:27:34;67291.03;;;12.95;100.00
44144;BME280;43510;51.920;4.492;2022-11-11T02:30:03;67291.44;;;12.93;100.00
44144;BME280;43510;51.920;4.492;2022-11-11T02:32:29;67298.31;;;13.01;100.00
44144;BME280;43510;51.920;4.492;2022-11-11T02:34:58;67299.09;;;12.97;100.00
44144;BME280;43510;51.920;4.492;2022-11-11T02:37:25;67291.59;;;12.95;100.00
44144;BME280;43510;51.920;4.492;2022-11-11T02:39:55;67282.13;;;12.87;100.00
44144;BME280;43510;51.920;4.492;2022-11-11T02:42:22;67295.50;;;12.99;100.00
44144;BME280;43510;51.920;4.492;2022-11-11T02:44:48;67296.47;;;12.97;100.00
44144;BME280;43510;51.920;4.492;2022-11-11T02:47:14;67294.41;;;12.98;100.00
44144;BME280;43510;51.920;4.492;2022-11-11T02:49:40;67294.97;;;12.98;100.00
44144;BME280;43510;51.920;4.492;2022-11-11T02:52:07;67290.31;;;12.92;100.00
44144;BME280;43510;51.920;4.492;2022-11-11T02:54:32;67281.00;;;12.86;100.00
44144;BME280;43510;51.920;4.492;2022-11-11T02:56:57;67287.69;;;12.92;100.00
44144;BME280;43510;51.920;4.492;2022-11-11T02:59:32;67290.47;;;12.94;100.00
44144;BME280;43510;51.920;4.492;2022-11-11T03:01:58;67285.44;;;12.90;100.00
44144;BME280;43510;51.920;4.492;2022-11-11T03:04:23;67285.44;;;12.90;100.00
44144;BME280;43510;51.920;4.492;2022-11-11T03:06:58;67292.56;;;12.94;100.00
44144;BME280;43510;51.920;4.492;2022-11-11T03:09:24;67284.91;;;12.89;100.00
44144;BME280;43510;51.920;4.492;2022-11-11T03:11:49;67283.06;;;12.85;100.00
44144;BME280;43510;51.920;4.492;2022-11-11T03:14:15;67275.41;;;12.81;100.00
44144;BME280;43510;51.920;4.492;2022-11-11T03:16:40;67273.72;;;12.79;100.00
44144;BME280;43510;51.920;4.492;2022-11-11T03:19:25;67278.75;;;12.84;100.00
44144;BME280;43510;51.920;4.492;2022-11-11T03:21:50;67279.31;;;12.84;100.00
44144;BME280;43510;51.920;4.492;2022-11-11T03:24:16;67283.22;;;12.88;100.00
44144;BME280;43510;51.920;4.492;2022-11-11T03:26:41;67292.22;;;12.89;100.00
44144;BME280;43510;51.920;4.492;2022-11-11T03:29:07;67283.63;;;12.86;100.00
44144;BME280;43510;51.920;4.492;2022-11-11T03:31:32;67279.31;;;12.84;100.00
44144;BME280;43510;51.920;4.492;2022-11-11T03:33:58;67279.88;;;12.85;100.00
44144;BME280;43510;51.920;4.492;2022-11-11T03:36:43;67276.50;;;12.82;100.00
44144;BME280;43510;51.920;4.492;2022-11-11T03:39:28;67269.59;;;12.80;100.00
44144;BME280;43510;51.920;4.492;2022-11-11T03:41:54;67271.31;;;12.75;100.00
44144;BME280;43510;51.920;4.492;2022-11-11T03:44:20;67278.75;;;12.84;100.00
44144;BME280;43510;51.920;4.492;2022-11-11T03:46:45;67279.31;;;12.84;100.00
44144;BME280;43510;51.920;4.492;2022-11-11T03:49:10;67281.00;;;12.86;100.00
44144;BME280;43510;51.920;4.492;2022-11-11T03:51:36;67277.06;;;12.82;100.00
44144;BME280;43510;51.920;4.492;2022-11-11T03:54:01;67284.75;;;12.87;100.00
44144;BME280;43510;51.920;4.492;2022-11-11T03:56:27;67289.22;;;12.91;100.00
44144;BME280;43510;51.920;4.492;2022-11-11T03:58:52;67287.13;;;12.91;100.00
44144;BME280;43510;51.920;4.492;2022-11-11T04:01:18;67288.09;;;12.90;100.00
44144;BME280;43510;51.920;4.492;2022-11-11T04:04:04;67286.00;;;12.90;100.00
44144;BME280;43510;51.920;4.492;2022-11-11T04:06:48;67286.00;;;12.90;100.00
44144;BME280;43510;51.920;4.492;2022-11-11T04:09:33;67283.78;;;12.88;100.00
44144;BME280;43510;51.920;4.492;2022-11-11T04:12:17;67286.00;;;12.90;100.00
44144;BME280;43510;51.920;4.492;2022-11-11T04:14:42;67291.59;;;12.95;100.00
44144;BME280;43510;51.920;4.492;2022-11-11T04:17:26;67292.56;;;12.94;100.00
44144;BME280;43510;51.920;4.492;2022-11-11T04:19:53;67293.66;;;12.95;100.00
44144;BME280;43510;51.920;4.492;2022-11-11T04:22:43;67290.47;;;12.94;100.00
44144;BME280;43510;51.920;4.492;2022-11-11T04:25:08;67283.38;;;12.90;100.00
44144;BME280;43510;51.920;4.492;2022-11-11T04:27:56;67284.75;;;12.87;100.00
44144;BME280;43510;51.920;4.492;2022-11-11T04:30:40;67277.06;;;12.82;100.00
44144;BME280;43510;51.920;4.492;2022-11-11T04:33:05;67277.63;;;12.83;100.00
44144;BME280;43510;51.920;4.492;2022-11-11T04:35:31;67273.31;;;12.81;100.00
44144;BME280;43510;51.920;4.492;2022-11-11T04:37:56;67273.00;;;12.76;100.00
44144;BME280;43510;51.920;4.492;2022-11-11T04:40:45;67270.91;;;12.77;100.00
44144;BME280;43510;51.920;4.492;2022-11-11T04:43:29;67268.13;;;12.74;100.00
44144;BME280;43510;51.920;4.492;2022-11-11T04:45:59;67270.03;;;12.71;100.00
44144;BME280;43510;51.920;4.492;2022-11-11T04:48:25;67267.25;;;12.68;100.00
44144;BME280;43510;51.920;4.492;2022-11-11T04:50:51;67261.44;;;12.68;100.00
44144;BME280;43510;51.920;4.492;2022-11-11T04:53:16;67260.69;;;12.65;100.00
44144;BME280;43510;51.920;4.492;2022-11-11T04:55:42;67259.56;;;12.64;100.00
44144;BME280;43510;51.920;4.492;2022-11-11T04:58:31;67262.75;;;12.64;100.00
44144;BME280;43510;51.920;4.492;2022-11-11T05:00:57;67243.72;;;12.54;100.00
44144;BME280;43510;51.920;4.492;2022-11-11T05:03:23;67257.34;;;12.62;100.00
44144;BME280;43510;51.920;4.492;2022-11-11T05:08:46;67253.44;;;12.58;100.00
44144;BME280;43510;51.920;4.492;2022-11-11T05:13:53;67242.44;;;12.51;100.00
44144;BME280;43510;51.920;4.492;2022-11-11T05:16:52;67242.97;;;12.51;100.00
44144;BME280;43510;51.920;4.492;2022-11-11T05:19:36;67235.19;;;12.44;100.00
44144;BME280;43510;51.920;4.492;2022-11-11T05:22:33;67239.47;;;12.46;100.00
44144;BME280;43510;51.920;4.492;2022-11-11T05:24:59;67240.03;;;12.46;100.00
44144;BME280;43510;51.920;4.492;2022-11-11T05:27:44;67235.00;;;12.42;100.00
44144;BME280;43510;51.920;4.492;2022-11-11T05:30:11;67234.44;;;12.41;100.00
44144;BME280;43510;51.920;4.492;2022-11-11T05:32:38;67239.88;;;12.44;100.00
44144;BME280;43510;51.920;4.492;2022-11-11T05:35:05;67241.16;;;12.47;100.00
44144;BME280;43510;51.920;4.492;2022-11-11T05:37:33;67245.44;;;12.49;100.00
44144;BME280;43510;51.920;4.492;2022-11-11T05:39:59;67241.88;;;12.50;100.00
44144;BME280;43510;51.920;4.492;2022-11-11T05:42:24;67234.63;;;12.44;100.00
44144;BME280;43510;51.920;4.492;2022-11-11T05:44:50;67247.69;;;12.51;100.00
44144;BME280;43510;51.920;4.492;2022-11-11T05:47:16;67248.41;;;12.54;100.00
44144;BME280;43510;51.920;4.492;2022-11-11T05:49:46;67250.41;;;12.60;100.00
44144;BME280;43510;51.920;4.492;2022-11-11T05:52:14;67247.84;;;12.53;100.00
44144;BME280;43510;51.920;4.492;2022-11-11T05:54:40;67250.81;;;12.58;100.00
44144;BME280;43510;51.920;4.492;2022-11-11T05:57:06;67235.72;;;12.45;100.00
44144;BME280;43510;51.920;4.492;2022-11-11T05:59:32;67241.16;;;12.47;100.00
44144;BME280;43510;51.920;4.492;2022-11-11T06:01:58;67249.69;;;12.57;100.00
44144;BME280;43510;51.920;4.492;2022-11-11T06:04:25;67256.22;;;12.61;100.00
44144;BME280;43510;51.920;4.492;2022-11-11T06:06:52;67254.00;;;12.59;100.00
44144;BME280;43510;51.920;4.492;2022-11-11T06:09:18;67246.72;;;12.52;100.00
44144;BME280;43510;51.920;4.492;2022-11-11T06:11:43;67243.72;;;12.54;100.00
44144;BME280;43510;51.920;4.492;2022-11-11T06:14:09;67241.53;;;12.45;100.00
44144;BME280;43510;51.920;4.492;2022-11-11T06:16:34;67243.53;;;12.52;100.00
44144;BME280;43510;51.920;4.492;2022-11-11T06:19:00;67234.44;;;12.41;100.00
44144;BME280;43510;51.920;4.492;2022-11-11T06:21:30;67241.00;;;12.45;100.00
44144;BME280;43510;51.920;4.492;2022-11-11T06:24:01;67249.16;;;12.57;100.00
44144;BME280;43510;51.920;4.492;2022-11-11T06:26:26;67250.09;;;12.55;100.00
44144;BME280;43510;51.920;4.492;2022-11-11T06:28:54;67250.81;;;12.58;100.00
44144;BME280;43510;51.920;4.492;2022-11-11T06:31:25;67250.09;;;12.55;100.00
44144;BME280;43510;51.920;4.492;2022-11-11T06:33:58;67250.66;;;12.56;100.00
44144;BME280;43510;51.920;4.492;2022-11-11T06:36:23;67255.28;;;12.62;100.00
44144;BME280;43510;51.920;4.492;2022-11-11T06:38:50;67249.69;;;12.57;100.00
44144;BME280;43510;51.920;4.492;2022-11-11T06:41:16;67244.66;;;12.53;100.00
44144;BME280;43510;51.920;4.492;2022-11-11T06:43:42;67234.06;;;12.43;100.00
44144;BME280;43510;51.920;4.492;2022-11-11T06:46:25;67248.97;;;12.54;100.00
44144;BME280;43510;51.920;4.492;2022-11-11T06:48:51;67244.50;;;12.50;100.00
44144;BME280;43510;51.920;4.492;2022-11-11T06:51:17;67242.81;;;12.49;100.00
44144;BME280;43510;51.920;4.492;2022-11-11T06:53:43;67237.41;;;12.46;100.00
44144;BME280;43510;51.920;4.492;2022-11-11T06:56:12;67241.16;;;12.47;100.00
44144;BME280;43510;51.920;4.492;2022-11-11T06:58:40;67213.22;;;12.22;100.00
44144;BME280;43510;51.920;4.492;2022-11-11T07:01:08;67218.97;;;12.30;100.00
44144;BME280;43510;51.920;4.492;2022-11-11T07:03:40;67235.56;;;12.42;100.00
44144;BME280;43510;51.920;4.492;2022-11-11T07:06:05;67237.41;;;12.46;100.00
44144;BME280;43510;51.920;4.492;2022-11-11T07:08:32;67210.03;;;12.21;100.00
44144;BME280;43510;51.920;4.492;2022-11-11T07:10:57;67233.72;;;12.38;100.00
44144;BME280;43510;51.920;4.492;2022-11-11T07:13:23;67227.03;;;12.32;100.00
44144;BME280;43510;51.920;4.492;2022-11-11T07:15:50;67225.91;;;12.31;100.00
44144;BME280;43510;51.920;4.492;2022-11-11T07:18:17;67228.69;;;12.34;100.00
44144;BME280;43510;51.920;4.492;2022-11-11T07:20:43;67238.91;;;12.45;100.00
44144;BME280;43510;51.920;4.492;2022-11-11T07:23:09;67233.50;;;12.43;100.00
44144;BME280;43510;51.920;4.492;2022-11-11T07:25:35;67220.47;;;12.28;100.00
44144;BME280;43510;51.920;4.492;2022-11-11T07:28:04;67231.81;;;12.41;100.00
44144;BME280;43510;51.920;4.492;2022-11-11T07:30:30;67233.00;;;12.35;100.00
44144;BME280;43510;51.920;4.492;2022-11-11T07:32:56;67241.69;;;12.48;100.00
44144;BME280;43510;51.920;4.492;2022-11-11T07:35:21;67233.31;;;12.40;100.00
44144;BME280;43510;51.920;4.492;2022-11-11T07:37:47;67244.09;;;12.52;100.00
44144;BME280;43510;51.920;4.492;2022-11-11T07:40:14;67221.75;;;12.32;100.00
44144;BME280;43510;51.920;4.492;2022-11-11T07:42:41;67247.47;;;12.55;100.00
44144;BME280;43510;51.920;4.492;2022-11-11T07:45:08;67241.31;;;12.50;100.00
44144;BME280;43510;51.920;4.492;2022-11-11T07:47:35;67231.66;;;12.39;100.00
44144;BME280;43510;51.920;4.492;2022-11-11T07:50:03;67246.91;;;12.55;100.00
44144;BME280;43510;51.920;4.492;2022-11-11T07:52:29;67241.16;;;12.47;100.00
44144;BME280;43510;51.920;4.492;2022-11-11T07:54:57;67253.28;;;12.56;100.00
44144;BME280;43510;51.920;4.492;2022-11-11T07:57:23;67243.94;;;12.50;100.00
44144;BME280;43510;51.920;4.492;2022-11-11T07:59:49;67259.97;;;12.62;100.00
44144;BME280;43510;51.920;4.492;2022-11-11T08:02:14;67253.44;;;12.58;100.00
44144;BME280;43510;51.920;4.492;2022-11-11T08:04:41;67230.69;;;12.40;100.00
44144;BME280;43510;51.920;4.492;2022-11-11T08:07:08;67246.34;;;12.54;100.00
44144;BME280;43510;51.920;4.492;2022-11-11T08:09:34;67236.84;;;12.46;100.00
44144;BME280;43510;51.920;4.492;2022-11-11T08:11:59;67231.25;;;12.41;100.00
44144;BME280;43510;51.920;4.492;2022-11-11T08:14:43;67261.09;;;12.63;100.00
44144;BME280;43510;51.920;4.492;2022-11-11T08:17:09;67261.25;;;12.65;100.00
44144;BME280;43510;51.920;4.492;2022-11-11T08:19:34;67263.88;;;12.65;100.00
44144;BME280;43510;51.920;4.492;2022-11-11T08:22:00;67247.47;;;12.55;100.00
44144;BME280;43510;51.920;4.492;2022-11-11T08:24:25;67254.72;;;12.62;100.00
44144;BME280;43510;51.920;4.492;2022-11-11T08:26:51;67262.22;;;12.64;100.00
44144;BME280;43510;51.920;4.492;2022-11-11T08:29:18;67243.38;;;12.49;100.00
44144;BME280;43510;51.920;4.492;2022-11-11T08:31:44;67270.91;;;12.77;100.00
44144;BME280;43510;51.920;4.492;2022-11-11T08:34:10;67284.00;;;12.84;100.00
44144;BME280;43510;51.920;4.492;2022-11-11T08:36:35;67275.41;;;12.81;100.00
44144;BME280;43510;51.920;4.492;2022-11-11T08:39:02;67266.59;;;12.75;100.00
44144;BME280;43510;51.920;4.492;2022-11-11T08:41:30;67264.06;;;12.68;100.00
44144;BME280;43510;51.920;4.492;2022-11-11T08:43:55;67279.31;;;12.84;100.00
44144;BME280;43510;51.920;4.492;2022-11-11T08:46:22;67270.34;;;12.76;100.00
44144;BME280;43510;51.920;4.492;2022-11-11T08:48:48;67288.25;;;12.92;100.00
44144;BME280;43510;51.920;4.492;2022-11-11T08:51:14;67276.50;;;12.82;100.00
44144;BME280;43510;51.920;4.492;2022-11-11T08:53:40;67300.94;;;13.01;100.00
44144;BME280;43510;51.920;4.492;2022-11-11T08:56:06;67295.75;;;12.94;100.00
44144;BME280;43510;51.920;4.492;2022-11-11T08:58:32;67309.88;;;13.09;100.00
44144;BME280;43510;51.920;4.492;2022-11-11T09:00:58;67309.16;;;13.06;100.00
44144;BME280;43510;51.920;4.492;2022-11-11T09:03:25;67302.22;;;13.05;100.00
44144;BME280;43510;51.920;4.492;2022-11-11T09:05:57;67316.22;;;13.18;100.00
44144;BME280;43510;51.920;4.492;2022-11-11T09:08:24;67302.94;;;13.08;100.00
44144;BME280;43510;51.920;4.492;2022-11-11T09:10:49;67308.91;;;13.11;100.00
44144;BME280;43510;51.920;4.492;2022-11-11T09:13:18;67315.66;;;13.17;100.00
44144;BME280;43510;51.920;4.492;2022-11-11T09:15:43;67330.03;;;13.28;100.00
44144;BME280;43510;51.920;4.492;2022-11-11T09:18:09;67327.41;;;13.28;100.00
44144;BME280;43510;51.920;4.492;2022-11-11T09:20:34;67321.25;;;13.22;100.00
44144;BME280;43510;51.920;4.492;2022-11-11T09:23:05;67333.72;;;13.36;100.00
44144;BME280;43510;51.920;4.492;2022-11-11T09:25:30;67323.16;;;13.19;100.00
44144;BME280;43510;51.920;4.492;2022-11-11T09:27:58;67322.78;;;13.21;100.00
44144;BME280;43510;51.920;4.492;2022-11-11T09:30:25;67301.50;;;13.02;100.00
44144;BME280;43510;51.920;4.492;2022-11-11T09:32:50;67308.38;;;13.11;100.00
44144;BME280;43510;51.920;4.492;2022-11-11T09:35:16;67288.81;;;12.93;100.00
44144;BME280;43510;51.920;4.492;2022-11-11T09:38:00;67308.38;;;13.11;100.00
44144;BME280;43510;51.920;4.492;2022-11-11T09:40:48;67319.56;;;13.21;100.00
44144;BME280;43510;51.920;4.492;2022-11-11T09:46:34;67317.50;;;13.21;100.00
44144;BME280;43510;51.920;4.492;2022-11-11T09:51:47;67320.13;;;13.21;100.00
44144;BME280;43510;51.920;4.492;2022-11-11T09:54:19;67300.00;;;13.03;100.00
44144;BME280;43510;51.920;4.492;2022-11-11T09:56:51;67320.53;;;13.19;100.00
44144;BME280;43510;51.920;4.492;2022-11-11T09:59:23;67324.59;;;13.25;100.00
44144;BME280;43510;51.920;4.492;2022-11-11T10:01:55;67304.47;;;13.07;100.00
44144;BME280;43510;51.920;4.492;2022-11-11T10:04:34;67305.00;;;13.07;100.00
44144;BME280;43510;51.920;4.492;2022-11-11T10:13:15;67331.69;;;13.29;100.00
44144;BME280;43510;51.920;4.492;2022-11-11T10:15:37;67321.25;;;13.22;100.00
44144;BME280;43510;51.920;4.492;2022-11-11T10:18:28;67342.34;;;13.39;100.00
44144;BME280;43510;51.920;4.492;2022-11-11T10:21:04;67327.41;;;13.28;100.00
44144;BME280;43510;51.920;4.492;2022-11-11T10:23:39;67356.31;;;13.52;100.00
44144;BME280;43510;51.920;4.492;2022-11-11T10:26:24;67357.41;;;13.53;100.00
44144;BME280;43510;51.920;4.492;2022-11-11T10:28:54;67345.53;;;13.39;100.00
44144;BME280;43510;51.920;4.492;2022-11-11T10:31:22;67347.69;;;13.48;100.00
44144;BME280;43510;51.920;4.492;2022-11-11T10:34:01;67376.09;;;13.65;100.00
44144;BME280;43510;51.920;4.492;2022-11-11T10:36:30;67364.69;;;13.59;100.00
44144;BME280;43510;51.920;4.492;2022-11-11T10:38:57;67381.63;;;13.77;100.00
44144;BME280;43510;51.920;4.492;2022-11-11T10:41:38;67400.50;;;13.92;100.00
44144;BME280;43510;51.920;4.492;2022-11-11T10:44:26;67393.53;;;13.90;100.00
44144;BME280;43510;51.920;4.492;2022-11-11T10:46:57;67423.59;;;14.15;100.00
44144;BME280;43510;51.920;4.492;2022-11-11T10:49:32;67398.81;;;13.90;100.00
44144;BME280;43510;51.920;4.492;2022-11-11T10:53:15;67410.00;;;14.00;100.00
44144;BME280;43510;51.920;4.492;2022-11-11T10:55:19;67399.94;;;13.91;100.00
44144;BME280;43510;51.920;4.492;2022-11-11T11:00:51;67397.47;;;13.94;100.00
44144;BME280;43510;51.920;4.492;2022-11-11T11:03:54;67430.31;;;14.21;99.44
44144;BME280;43510;51.920;4.492;2022-11-11T11:06:29;67403.44;;;13.97;100.00
44144;BME280;43510;51.920;4.492;2022-11-11T11:09:30;67412.63;;;14.00;100.00
44144;BME280;43510;51.920;4.492;2022-11-11T11:12:10;67394.50;;;13.88;100.00
44144;BME280;43510;51.920;4.492;2022-11-11T11:15:00;67382.59;;;13.75;100.00
44144;BME280;43510;51.920;4.492;2022-11-11T11:18:08;67378.69;;;13.72;100.00
44144;BME280;43510;51.920;4.492;2022-11-11T11:20:37;67355.91;;;13.54;100.00
44144;BME280;43510;51.920;4.492;2022-11-11T11:23:06;67352.81;;;13.46;100.00
44144;BME280;43510;51.920;4.492;2022-11-11T11:25:33;67349.03;;;13.45;100.00
44144;BME280;43510;51.920;4.492;2022-11-11T11:28:12;67359.97;;;13.60;100.00
44144;BME280;43510;51.920;4.492;2022-11-11T11:31:08;67361.50;;;13.59;100.00
44144;BME280;43510;51.920;4.492;2022-11-11T11:33:54;67380.34;;;13.73;100.00
44144;BME280;43510;51.920;4.492;2022-11-11T11:36:28;67388.91;;;13.83;100.00
44144;BME280;43510;51.920;4.492;2022-11-11T11:39:36;67388.91;;;13.83;99.81
44144;BME280;43510;51.920;4.492;2022-11-11T11:42:29;67439.41;;;14.31;98.57
44144;BME280;43510;51.920;4.492;2022-11-11T11:45:21;67414.63;;;14.07;99.62
44144;BME280;43510;51.920;4.492;2022-11-11T11:48:45;67431.44;;;14.22;99.31
44144;BME280;43510;51.920;4.492;2022-11-11T11:55:01;67457.75;;;14.46;98.77
44144;BME280;43510;51.920;4.492;2022-11-11T12:01:06;67446.94;;;14.34;98.11
44144;BME280;43510;51.920;4.492;2022-11-11T12:12:26;67491.88;;;14.77;97.27
44144;BME280;43510;51.920;4.492;2022-11-11T12:15:39;67508.69;;;14.92;96.33
44144;BME280;43510;51.920;4.492;2022-11-11T12:18:38;67525.47;;;15.07;96.11
44144;BME280;43510;51.920;4.492;2022-11-11T12:21:14;67515.41;;;14.98;95.84
44144;BME280;43510;51.920;4.492;2022-11-11T12:23:57;67509.41;;;14.95;95.85
44144;BME280;43510;51.920;4.492;2022-11-11T12:26:48;67516.69;;;15.01;95.54
44144;BME280;43510;51.920;4.492;2022-11-11T12:44:12;67539.47;;;15.20;95.55
44144;BME280;43510;51.920;4.492;2022-11-11T12:55:42;67564.13;;;15.42;94.81
44144;BME280;43510;51.920;4.492;2022-11-11T13:01:19;67549.38;;;15.26;94.78
44144;BME280;43510;51.920;4.492;2022-11-11T13:06:42;67570.09;;;15.45;93.88
44144;BME280;43510;51.920;4.492;2022-11-11T13:12:28;67571.97;;;15.49;93.67
44144;BME280;43510;51.920;4.492;2022-11-11T13:15:14;67566.91;;;15.44;93.78
44144;BME280;43510;51.920;4.492;2022-11-11T13:17:41;67554.75;;;15.36;93.46
44144;BME280;43510;51.920;4.492;2022-11-11T13:22:41;67565.47;;;15.38;93.47
44144;BME280;43510;51.920;4.492;2022-11-11T13:25:13;67565.78;;;15.43;93.81
44144;BME280;43510;51.920;4.492;2022-11-11T13:27:49;67568.84;;;15.41;93.52
44144;BME280;43510;51.920;4.492;2022-11-11T13:30:44;67561.16;;;15.37;93.54
44144;BME280;43510;51.920;4.492;2022-11-11T13:33:20;67536.69;;;15.17;94.06
44144;BME280;43510;51.920;4.492;2022-11-11T13:35:57;67535.00;;;15.16;94.04
44144;BME280;43510;51.920;4.492;2022-11-11T13:38:31;67536.13;;;15.17;94.40
44144;BME280;43510;51.920;4.492;2022-11-11T13:41:00;67524.69;;;15.11;94.44
44144;BME280;43510;51.920;4.492;2022-11-11T13:43:32;67526.44;;;15.05;94.61
44144;BME280;43510;51.920;4.492;2022-11-11T13:46:05;67514.28;;;14.97;94.87
44144;BME280;43510;51.920;4.492;2022-11-11T13:48:35;67522.13;;;15.04;94.99
44144;BME280;43510;51.920;4.492;2022-11-11T13:51:23;67521.88;;;15.08;95.15
44144;BME280;43510;51.920;4.492;2022-11-11T13:53:49;67514.13;;;14.94;94.95
44144;BME280;43510;51.920;4.492;2022-11-11T13:56:39;67513.72;;;14.96;95.61
44144;BME280;43510;51.920;4.492;2022-11-11T13:59:13;67507.56;;;14.91;95.68
44144;BME280;43510;51.920;4.492;2022-11-11T14:01:42;67508.13;;;14.91;95.80
44144;BME280;43510;51.920;4.492;2022-11-11T14:04:09;67499.56;;;14.81;95.45
44144;BME280;43510;51.920;4.492;2022-11-11T14:12:21;67507.41;;;14.88;95.12
44144;BME280;43510;51.920;4.492;2022-11-11T14:14:58;67502.53;;;14.86;95.50
44144;BME280;43510;51.920;4.492;2022-11-11T14:17:29;67506.22;;;14.94;95.37
44144;BME280;43510;51.920;4.492;2022-11-11T14:19:54;67499.16;;;14.83;94.91
44144;BME280;43510;51.920;4.492;2022-11-11T14:22:28;67512.03;;;14.95;95.29
44144;BME280;43510;51.920;4.492;2022-11-11T14:24:54;67502.53;;;14.86;94.91
44144;BME280;43510;51.920;4.492;2022-11-11T14:27:34;67497.06;;;14.84;94.78
44144;BME280;43510;51.920;4.492;2022-11-11T14:30:00;67497.50;;;14.82;94.42
44144;BME280;43510;51.920;4.492;2022-11-11T14:39:29;67513.72;;;14.96;94.31
44144;BME280;43510;51.920;4.492;2022-11-11T14:41:56;67500.69;;;14.82;94.16
44144;BME280;43510;51.920;4.492;2022-11-11T15:00:14;67489.31;;;14.69;94.82
44144;BME280;43510;51.920;4.492;2022-11-11T15:08:02;67472.88;;;14.59;95.54
44144;BME280;43510;51.920;4.492;2022-11-11T15:10:58;67485.75;;;14.71;95.76